Terminal Aerodrome Forecast
Issued by NWS

Home | Current Version | Previous Version | Text Only | Print | Product List | Glossary On
Versions: 1 2 3 4 5 6 7 8 9 10 11 12 13 14 15
899
FTUS42 TJSJ 261729
TAFISX
TAF
TISX 261729Z 2618/2718 10008KT P6SM VCSH SCT030
     FM270000 04004KT P6SM VCSH SCT025 SCT035
     FM271400 10012KT P6SM FEW030 SCT040=

USA.gov is the U.S. government's official web portal to all federal, state and local government web resources and services.